createdAt,value
2024-03-08T00:00:13.650Z,2.77
2024-03-08T00:01:11.502Z,2.90
2024-03-08T00:02:08.277Z,2.88
2024-03-08T00:03:05.878Z,2.83
2024-03-08T00:04:02.776Z,2.66
2024-03-08T00:04:59.487Z,2.80
2024-03-08T00:05:57.300Z,2.85
2024-03-08T00:06:54.077Z,3.05
2024-03-08T00:07:50.731Z,3.09
2024-03-08T00:08:47.480Z,2.91
2024-03-08T00:09:44.191Z,2.99
2024-03-08T00:10:40.854Z,2.90
2024-03-08T00:11:37.689Z,2.99
2024-03-08T00:12:34.550Z,3.12
2024-03-08T00:13:31.277Z,3.07
2024-03-08T00:14:28.865Z,2.92
2024-03-08T00:15:25.733Z,2.61
2024-03-08T00:16:24.369Z,2.95
2024-03-08T00:17:23.804Z,2.86
2024-03-08T00:18:20.619Z,2.73
2024-03-08T00:19:17.345Z,2.75
2024-03-08T00:20:14.852Z,2.85
2024-03-08T00:21:13.207Z,2.75
2024-03-08T00:22:10.002Z,2.62
2024-03-08T00:23:06.627Z,2.45
2024-03-08T00:24:05.239Z,2.38
2024-03-08T00:25:03.013Z,2.36
2024-03-08T00:25:59.696Z,2.47
2024-03-08T00:26:56.389Z,2.34
2024-03-08T00:27:56.967Z,2.50
2024-03-08T00:28:55.169Z,2.37
2024-03-08T00:29:51.943Z,2.46
2024-03-08T00:30:48.583Z,2.49
2024-03-08T00:31:45.260Z,2.36
2024-03-08T00:32:42.344Z,2.37
2024-03-08T00:33:40.809Z,2.43
2024-03-08T00:34:40.430Z,2.41
2024-03-08T00:35:37.056Z,2.33
2024-03-08T00:36:33.792Z,2.29
2024-03-08T00:37:30.477Z,2.30
2024-03-08T00:38:27.121Z,2.35
2024-03-08T00:39:24.006Z,2.27
2024-03-08T00:40:20.739Z,2.26
2024-03-08T00:41:17.751Z,2.24
2024-03-08T00:42:14.950Z,2.25
2024-03-08T00:43:11.643Z,2.29
2024-03-08T00:44:08.292Z,2.21
2024-03-08T00:45:05.590Z,2.24
2024-03-08T00:46:02.525Z,2.41
2024-03-08T00:47:00.260Z,2.46
2024-03-08T00:47:57.118Z,2.46
2024-03-08T00:48:53.880Z,2.31
2024-03-08T00:49:50.656Z,2.32
2024-03-08T00:50:47.446Z,2.23
2024-03-08T00:51:44.881Z,2.38
2024-03-08T00:52:41.960Z,2.33
2024-03-08T00:53:38.660Z,2.21
2024-03-08T00:54:37.240Z,2.19
2024-03-08T00:55:34.472Z,2.23
2024-03-08T00:56:31.206Z,2.28
2024-03-08T00:57:29.192Z,2.26
2024-03-08T00:58:25.839Z,2.26
2024-03-08T00:59:22.496Z,2.46
2024-03-08T01:00:19.816Z,2.22
2024-03-08T01:01:19.581Z,2.19
2024-03-08T01:02:18.150Z,2.21
2024-03-08T01:03:14.832Z,2.14
2024-03-08T01:04:11.701Z,2.30
2024-03-08T01:05:08.770Z,2.24
2024-03-08T01:06:05.798Z,2.26
2024-03-08T01:07:02.544Z,2.24
2024-03-08T01:07:59.224Z,2.17
2024-03-08T01:08:55.832Z,2.16
2024-03-08T01:09:52.458Z,2.06
2024-03-08T01:10:49.128Z,2.18
2024-03-08T01:11:46.215Z,2.16
2024-03-08T01:12:44.007Z,2.00
2024-03-08T01:13:40.654Z,2.33
2024-03-08T01:14:37.283Z,2.16
2024-03-08T01:15:34.011Z,2.08
2024-03-08T01:16:30.715Z,2.04
2024-03-08T01:17:28.105Z,2.12
2024-03-08T01:18:24.817Z,2.15
2024-03-08T01:19:21.581Z,2.18
2024-03-08T01:20:19.030Z,2.21
2024-03-08T01:21:15.746Z,2.15
2024-03-08T01:22:12.489Z,2.21
2024-03-08T01:23:09.090Z,1.81
2024-03-08T01:24:06.285Z,2.29
2024-03-08T01:25:04.585Z,2.15
2024-03-08T01:26:03.365Z,2.21
2024-03-08T01:27:00.919Z,2.23
2024-03-08T01:27:57.637Z,2.07
2024-03-08T01:28:54.370Z,1.92
2024-03-08T01:29:51.109Z,1.89
2024-03-08T01:30:47.747Z,1.86
2024-03-08T01:31:44.385Z,1.76
2024-03-08T01:32:41.112Z,1.76
2024-03-08T01:33:37.826Z,1.72
2024-03-08T01:34:34.508Z,1.66
2024-03-08T01:35:31.121Z,1.53
2024-03-08T01:36:27.860Z,1.59
2024-03-08T01:37:24.576Z,1.68
2024-03-08T01:38:24.622Z,1.56
2024-03-08T01:39:23.134Z,1.53
2024-03-08T01:40:19.897Z,1.47
2024-03-08T01:41:18.860Z,1.39
2024-03-08T01:42:18.596Z,1.41
2024-03-08T01:43:29.700Z,1.39
2024-03-08T01:44:26.477Z,1.36
2024-03-08T01:45:23.189Z,1.31
2024-03-08T01:46:23.346Z,1.41
2024-03-08T01:47:24.181Z,1.36
2024-03-08T01:48:25.197Z,1.39
2024-03-08T01:49:23.526Z,1.31
2024-03-08T01:50:20.930Z,1.35
2024-03-08T01:51:18.071Z,1.32
2024-03-08T01:52:14.882Z,1.22
2024-03-08T01:53:13.078Z,1.29
2024-03-08T01:54:11.625Z,1.22
2024-03-08T01:55:08.973Z,1.28
2024-03-08T01:56:08.057Z,1.08
2024-03-08T01:57:05.003Z,1.27
2024-03-08T01:58:02.243Z,1.19
2024-03-08T01:59:00.591Z,1.19
2024-03-08T01:59:57.375Z,1.09
2024-03-08T02:00:54.392Z,1.14
2024-03-08T02:01:52.606Z,1.16
2024-03-08T02:02:51.806Z,1.00
2024-03-08T02:03:48.587Z,1.04
2024-03-08T02:04:45.814Z,1.02
2024-03-08T02:05:42.741Z,1.02
2024-03-08T02:06:39.927Z,1.03
2024-03-08T02:07:36.979Z,1.02
2024-03-08T02:08:33.712Z,0.98
2024-03-08T02:09:30.446Z,0.95
2024-03-08T02:10:27.104Z,0.97
2024-03-08T02:11:24.138Z,0.98
2024-03-08T02:12:22.242Z,0.95
2024-03-08T02:13:20.292Z,1.08
2024-03-08T02:14:16.937Z,1.04
2024-03-08T02:15:13.708Z,0.97
2024-03-08T02:16:10.471Z,0.97
2024-03-08T02:17:07.281Z,1.00
2024-03-08T02:18:04.195Z,0.76
2024-03-08T02:19:01.286Z,0.98
2024-03-08T02:20:00.478Z,1.02
2024-03-08T02:20:58.947Z,1.02
2024-03-08T02:21:57.013Z,0.96
2024-03-08T02:22:53.686Z,0.97
2024-03-08T02:23:53.528Z,0.92
2024-03-08T02:24:50.880Z,0.96
2024-03-08T02:25:48.248Z,0.96
2024-03-08T02:26:44.917Z,0.99
2024-03-08T02:27:41.602Z,1.11
2024-03-08T02:28:38.794Z,0.88
2024-03-08T02:29:35.994Z,0.97
2024-03-08T02:30:32.634Z,1.18
2024-03-08T02:31:29.321Z,0.99
2024-03-08T02:32:26.127Z,1.09
2024-03-08T02:33:24.090Z,1.29
2024-03-08T02:34:21.323Z,1.23
2024-03-08T02:35:18.034Z,1.31
2024-03-08T02:36:14.984Z,1.44
2024-03-08T02:37:11.652Z,1.31
2024-03-08T02:38:08.421Z,1.06
2024-03-08T02:39:06.659Z,1.19
2024-03-08T02:40:03.718Z,1.37
2024-03-08T02:41:00.535Z,1.35
2024-03-08T02:41:57.459Z,1.23
2024-03-08T02:42:54.150Z,1.25
2024-03-08T02:43:51.677Z,1.05
2024-03-08T02:44:48.420Z,0.94
2024-03-08T02:45:46.591Z,1.09
2024-03-08T02:46:43.172Z,1.03
2024-03-08T02:47:39.917Z,1.26
2024-03-08T02:48:36.787Z,1.56
2024-03-08T02:49:33.575Z,1.35
2024-03-08T02:50:30.349Z,1.36
2024-03-08T02:51:27.601Z,1.43
2024-03-08T02:52:24.217Z,1.32
2024-03-08T02:53:20.816Z,1.27
2024-03-08T02:54:18.727Z,1.02
2024-03-08T02:55:18.226Z,0.88
2024-03-08T02:56:17.732Z,1.10
2024-03-08T02:57:15.843Z,1.46
2024-03-08T02:58:12.837Z,1.57
2024-03-08T02:59:09.806Z,1.29
2024-03-08T03:00:10.603Z,1.09
2024-03-08T03:01:07.413Z,1.11
2024-03-08T03:02:04.072Z,1.25
2024-03-08T03:03:01.267Z,1.38
2024-03-08T03:03:57.969Z,1.42
2024-03-08T03:04:56.985Z,1.36
2024-03-08T03:05:56.828Z,1.23
2024-03-08T03:06:53.578Z,1.12
2024-03-08T03:07:50.692Z,1.14
2024-03-08T03:08:47.357Z,1.03
2024-03-08T03:09:44.003Z,1.04
2024-03-08T03:10:40.622Z,1.30
2024-03-08T03:11:37.460Z,1.42
2024-03-08T03:12:35.103Z,1.37
2024-03-08T03:13:31.837Z,1.48
2024-03-08T03:14:28.471Z,1.31
2024-03-08T03:15:27.943Z,1.17
2024-03-08T03:16:25.523Z,0.75
2024-03-08T03:17:22.187Z,0.83
2024-03-08T03:18:22.784Z,0.88
2024-03-08T03:19:19.585Z,0.70
2024-03-08T03:20:23.869Z,0.54
2024-03-08T03:21:20.691Z,0.54
2024-03-08T03:22:17.382Z,0.54
2024-03-08T03:23:16.437Z,0.55
2024-03-08T03:24:13.913Z,0.65
2024-03-08T03:25:10.870Z,0.60
2024-03-08T03:26:13.492Z,0.60
2024-03-08T03:27:13.090Z,0.46
2024-03-08T03:28:12.145Z,0.83
2024-03-08T03:29:10.240Z,0.91
2024-03-08T03:30:22.747Z,0.71
2024-03-08T03:31:19.940Z,0.72
2024-03-08T03:32:17.672Z,0.78
2024-03-08T03:33:16.372Z,0.78
2024-03-08T03:34:14.287Z,0.82
2024-03-08T03:35:12.399Z,1.22
2024-03-08T03:36:11.285Z,0.96
2024-03-08T03:37:09.857Z,0.86
2024-03-08T03:38:10.868Z,0.71
2024-03-08T03:39:13.655Z,0.71
2024-03-08T03:40:10.890Z,0.94
2024-03-08T03:41:11.740Z,0.99
2024-03-08T03:42:08.609Z,0.90
2024-03-08T03:43:05.364Z,0.86
2024-03-08T03:44:02.097Z,0.98
2024-03-08T03:44:58.859Z,1.02
2024-03-08T03:45:56.905Z,1.05
2024-03-08T03:46:53.578Z,1.00
2024-03-08T03:47:50.266Z,0.93
2024-03-08T03:48:46.979Z,1.06
2024-03-08T03:49:43.912Z,0.84
2024-03-08T03:50:41.387Z,0.90
2024-03-08T03:51:38.324Z,0.95
2024-03-08T03:52:34.979Z,0.98
2024-03-08T03:53:31.665Z,0.88
2024-03-08T03:54:28.301Z,0.89
2024-03-08T03:55:25.016Z,0.99
2024-03-08T03:56:26.507Z,1.37
2024-03-08T03:57:24.150Z,1.25
2024-03-08T03:58:23.716Z,1.25
2024-03-08T03:59:20.516Z,1.24
2024-03-08T04:00:17.957Z,1.21
2024-03-08T04:01:14.703Z,1.52
2024-03-08T04:02:11.378Z,1.59
2024-03-08T04:03:08.907Z,1.35
2024-03-08T04:04:06.356Z,1.32
2024-03-08T04:05:03.537Z,1.35
2024-03-08T04:06:00.306Z,1.25
2024-03-08T04:06:57.032Z,1.25
2024-03-08T04:07:53.609Z,1.46
2024-03-08T04:08:50.268Z,1.28
2024-03-08T04:09:46.967Z,1.21
2024-03-08T04:10:43.928Z,1.31
2024-03-08T04:11:41.930Z,1.43
2024-03-08T04:12:39.196Z,1.42
2024-03-08T04:13:37.304Z,1.37
2024-03-08T04:14:34.230Z,1.39
2024-03-08T04:15:31.695Z,1.44
2024-03-08T04:16:28.340Z,1.51
2024-03-08T04:17:27.647Z,1.71
2024-03-08T04:18:24.417Z,1.72
2024-03-08T04:19:21.147Z,1.56
2024-03-08T04:20:18.962Z,1.33
2024-03-08T04:21:15.862Z,1.32
2024-03-08T04:22:12.900Z,1.32
2024-03-08T04:23:09.480Z,1.21
2024-03-08T04:24:06.847Z,1.37
2024-03-08T04:25:04.838Z,1.33
2024-03-08T04:26:01.551Z,1.01
2024-03-08T04:26:59.105Z,1.21
2024-03-08T04:27:55.767Z,1.27
2024-03-08T04:28:52.874Z,1.12
2024-03-08T04:29:49.454Z,1.23
2024-03-08T04:30:47.311Z,1.17
2024-03-08T04:31:44.000Z,1.02
2024-03-08T04:32:42.664Z,1.15
2024-03-08T04:33:40.134Z,1.05
2024-03-08T04:34:36.913Z,1.22
2024-03-08T04:35:34.116Z,1.06
2024-03-08T04:36:30.807Z,1.16
2024-03-08T04:37:27.482Z,1.08
2024-03-08T04:38:24.186Z,1.28
2024-03-08T04:39:20.810Z,1.27
2024-03-08T04:40:17.443Z,1.17
2024-03-08T04:41:14.185Z,1.26
2024-03-08T04:42:12.208Z,1.20
2024-03-08T04:43:10.054Z,1.16
2024-03-08T04:44:07.155Z,1.22
2024-03-08T04:45:05.392Z,1.34
2024-03-08T04:46:04.990Z,1.34
2024-03-08T04:47:01.915Z,1.23
2024-03-08T04:47:58.753Z,1.20
2024-03-08T04:48:55.496Z,1.21
2024-03-08T04:49:52.596Z,1.21
2024-03-08T04:50:49.635Z,1.20
2024-03-08T04:51:46.801Z,1.38
2024-03-08T04:52:43.384Z,1.24
2024-03-08T04:53:40.150Z,1.19
2024-03-08T04:54:37.007Z,1.17
2024-03-08T04:55:33.673Z,1.35
2024-03-08T04:56:30.380Z,1.29
2024-03-08T04:57:27.146Z,1.34
2024-03-08T04:58:23.789Z,1.37
2024-03-08T04:59:20.470Z,1.23
2024-03-08T05:00:17.834Z,1.28
2024-03-08T05:01:14.662Z,1.46
2024-03-08T05:02:12.750Z,1.07
2024-03-08T05:03:09.978Z,1.08
2024-03-08T05:04:09.899Z,1.15
2024-03-08T05:05:07.562Z,1.10
2024-03-08T05:06:04.306Z,1.03
2024-03-08T05:07:04.788Z,1.11
2024-03-08T05:08:02.737Z,1.23
2024-03-08T05:08:59.499Z,1.25
2024-03-08T05:09:56.137Z,1.38
2024-03-08T05:10:52.778Z,1.35
2024-03-08T05:11:49.499Z,1.30
2024-03-08T05:12:46.216Z,1.14
2024-03-08T05:13:42.805Z,1.10
2024-03-08T05:14:40.659Z,1.17
2024-03-08T05:15:37.717Z,1.10
2024-03-08T05:16:34.391Z,1.14
2024-03-08T05:17:31.681Z,1.06
2024-03-08T05:18:33.423Z,0.97
2024-03-08T05:19:34.550Z,1.18
2024-03-08T05:20:32.296Z,1.16
2024-03-08T05:21:30.059Z,1.29
2024-03-08T05:22:27.250Z,1.07
2024-03-08T05:23:23.880Z,1.05
2024-03-08T05:24:20.574Z,1.10
2024-03-08T05:25:17.375Z,1.18
2024-03-08T05:26:15.240Z,1.17
2024-03-08T05:27:12.240Z,1.33
2024-03-08T05:28:10.035Z,1.07
2024-03-08T05:29:06.971Z,0.98
2024-03-08T05:30:05.554Z,1.16
2024-03-08T05:31:02.622Z,1.09
2024-03-08T05:32:00.702Z,1.05
2024-03-08T05:32:58.174Z,1.00
2024-03-08T05:33:56.420Z,1.06
2024-03-08T05:34:53.303Z,1.05
2024-03-08T05:35:49.975Z,1.24
2024-03-08T05:36:47.889Z,1.10
2024-03-08T05:37:44.623Z,1.14
2024-03-08T05:38:42.438Z,1.11
2024-03-08T05:39:39.055Z,0.99
2024-03-08T05:40:35.847Z,1.23
2024-03-08T05:41:32.447Z,1.21
2024-03-08T05:42:29.632Z,1.29
2024-03-08T05:43:26.286Z,1.25
2024-03-08T05:44:23.642Z,1.27
2024-03-08T05:45:20.316Z,1.23
2024-03-08T05:46:18.548Z,1.36
2024-03-08T05:47:15.232Z,1.23
2024-03-08T05:48:13.827Z,1.21
2024-03-08T05:49:11.975Z,1.33
2024-03-08T05:50:12.035Z,1.27
2024-03-08T05:51:08.737Z,1.27
2024-03-08T05:52:05.832Z,1.27
2024-03-08T05:53:02.462Z,1.31
2024-03-08T05:53:59.588Z,1.55
2024-03-08T05:54:56.293Z,1.67
2024-03-08T05:55:52.869Z,1.49
2024-03-08T05:56:49.659Z,1.35
2024-03-08T05:57:46.382Z,1.55
2024-03-08T05:58:43.039Z,1.54
2024-03-08T05:59:39.701Z,1.79
2024-03-08T06:00:37.593Z,1.63
2024-03-08T06:01:37.369Z,1.88
2024-03-08T06:02:34.508Z,1.81
2024-03-08T06:03:31.559Z,1.67
2024-03-08T06:04:28.634Z,1.47
2024-03-08T06:05:25.760Z,1.59
2024-03-08T06:06:23.203Z,1.48
2024-03-08T06:07:21.364Z,1.38
2024-03-08T06:08:18.067Z,1.36
2024-03-08T06:09:18.594Z,1.38
2024-03-08T06:10:15.828Z,1.33
2024-03-08T06:11:12.643Z,1.57
2024-03-08T06:12:12.289Z,1.52
2024-03-08T06:13:08.946Z,1.50
2024-03-08T06:14:05.682Z,1.41
2024-03-08T06:15:02.465Z,1.09
2024-03-08T06:15:59.105Z,1.26
2024-03-08T06:16:55.738Z,1.33
2024-03-08T06:17:54.188Z,1.12
2024-03-08T06:18:51.041Z,1.30
2024-03-08T06:19:47.843Z,1.39
2024-03-08T06:20:45.073Z,1.47
2024-03-08T06:21:42.623Z,1.67
2024-03-08T06:22:41.965Z,1.57
2024-03-08T06:23:39.684Z,1.46
2024-03-08T06:24:37.997Z,1.45
2024-03-08T06:25:36.161Z,1.71
2024-03-08T06:26:34.296Z,1.49
2024-03-08T06:27:35.037Z,1.55
2024-03-08T06:28:33.639Z,1.46
2024-03-08T06:29:30.835Z,1.48
2024-03-08T06:30:27.544Z,1.61
2024-03-08T06:31:25.016Z,1.49
2024-03-08T06:32:21.767Z,1.66
2024-03-08T06:33:19.347Z,1.52
2024-03-08T06:34:16.437Z,1.50
2024-03-08T06:35:13.445Z,1.43
2024-03-08T06:36:12.929Z,1.24
2024-03-08T06:37:09.767Z,1.26
2024-03-08T06:38:06.417Z,1.43
2024-03-08T06:39:10.313Z,1.32
2024-03-08T06:40:09.745Z,1.38
2024-03-08T06:41:06.501Z,1.48
2024-03-08T06:42:03.406Z,1.53
2024-03-08T06:43:00.144Z,1.45
2024-03-08T06:43:59.192Z,1.49
2024-03-08T06:45:01.167Z,1.48
2024-03-08T06:45:57.955Z,1.64
2024-03-08T06:46:56.135Z,1.66
2024-03-08T06:47:56.188Z,1.75
2024-03-08T06:48:53.206Z,1.74
2024-03-08T06:49:50.718Z,1.24
2024-03-08T06:50:48.511Z,1.42
2024-03-08T06:51:45.472Z,1.52
2024-03-08T06:52:45.749Z,1.65
2024-03-08T06:53:42.493Z,1.55
2024-03-08T06:54:39.812Z,1.53
2024-03-08T06:55:36.570Z,1.60
2024-03-08T06:56:33.215Z,1.52
2024-03-08T06:57:30.792Z,1.63
2024-03-08T06:58:27.525Z,1.62
2024-03-08T06:59:24.142Z,1.55
2024-03-08T07:00:22.691Z,1.59
2024-03-08T07:01:19.651Z,1.56
2024-03-08T07:02:16.423Z,1.52
2024-03-08T07:03:18.366Z,1.41
2024-03-08T07:04:15.140Z,1.38
2024-03-08T07:05:12.462Z,1.47
2024-03-08T07:06:09.161Z,1.41
2024-03-08T07:07:06.793Z,1.49
2024-03-08T07:08:03.511Z,1.55
2024-03-08T07:09:00.461Z,1.60
2024-03-08T07:09:58.038Z,1.61
2024-03-08T07:10:55.612Z,1.53
2024-03-08T07:11:58.786Z,1.49
2024-03-08T07:12:56.477Z,1.56
2024-03-08T07:13:53.363Z,1.49
2024-03-08T07:14:50.778Z,1.75
2024-03-08T07:15:47.508Z,1.72
2024-03-08T07:16:45.958Z,1.80
2024-03-08T07:17:45.793Z,1.75
2024-03-08T07:18:44.975Z,1.69
2024-03-08T07:19:41.861Z,1.84
2024-03-08T07:20:39.650Z,2.01
2024-03-08T07:21:36.274Z,2.17
2024-03-08T07:22:32.906Z,1.79
2024-03-08T07:23:47.831Z,1.69
2024-03-08T07:24:50.177Z,1.96
2024-03-08T07:25:46.800Z,2.02
2024-03-08T07:26:44.211Z,1.88
2024-03-08T07:27:41.108Z,2.16
2024-03-08T07:28:38.176Z,2.41
2024-03-08T07:29:37.958Z,2.60
2024-03-08T07:30:46.744Z,2.19
2024-03-08T07:31:43.546Z,2.26
2024-03-08T07:32:40.231Z,2.25
2024-03-08T07:33:36.981Z,2.31
2024-03-08T07:34:34.899Z,2.36
2024-03-08T07:35:32.407Z,2.38
2024-03-08T07:36:29.153Z,2.41
2024-03-08T07:37:25.854Z,2.57
2024-03-08T07:38:22.919Z,2.21
2024-03-08T07:39:20.214Z,2.45
2024-03-08T07:40:17.683Z,2.29
2024-03-08T07:41:15.709Z,2.51
2024-03-08T07:42:13.042Z,2.80
2024-03-08T07:43:09.751Z,3.11
2024-03-08T07:44:07.033Z,3.21
2024-03-08T07:45:08.563Z,3.35
2024-03-08T07:46:05.405Z,3.32
2024-03-08T07:47:02.091Z,3.31
2024-03-08T07:47:58.806Z,3.29
2024-03-08T07:48:55.618Z,3.08
2024-03-08T07:49:52.655Z,3.39
2024-03-08T07:50:51.083Z,3.16
2024-03-08T07:51:47.797Z,3.27
2024-03-08T07:52:44.869Z,3.12
2024-03-08T07:53:42.652Z,3.20
2024-03-08T07:54:39.334Z,3.11
2024-03-08T07:55:37.033Z,2.86
2024-03-08T07:56:33.783Z,3.19
2024-03-08T07:57:31.367Z,3.57
2024-03-08T07:58:28.140Z,3.60
2024-03-08T07:59:24.937Z,2.91
2024-03-08T08:00:22.912Z,3.12
2024-03-08T08:01:19.948Z,3.04
2024-03-08T08:02:16.757Z,3.18
2024-03-08T08:03:14.073Z,3.18
2024-03-08T08:04:13.576Z,3.11
2024-03-08T08:05:11.499Z,3.31
2024-03-08T08:06:08.806Z,3.11
2024-03-08T08:07:05.503Z,3.05
2024-03-08T08:08:07.788Z,3.22
2024-03-08T08:09:04.738Z,3.27
2024-03-08T08:10:01.380Z,3.46
2024-03-08T08:10:58.245Z,3.09
2024-03-08T08:11:56.116Z,3.41
2024-03-08T08:12:52.725Z,3.34
2024-03-08T08:13:49.839Z,3.50
2024-03-08T08:14:46.638Z,3.29
2024-03-08T08:15:43.839Z,3.58
2024-03-08T08:16:43.767Z,3.99
2024-03-08T08:17:40.627Z,3.62
2024-03-08T08:18:38.136Z,3.31
2024-03-08T08:19:35.021Z,3.43
2024-03-08T08:20:32.584Z,3.85
2024-03-08T08:21:29.160Z,3.73
2024-03-08T08:22:26.095Z,3.23
2024-03-08T08:23:22.805Z,3.93
2024-03-08T08:24:21.757Z,4.12
2024-03-08T08:25:21.723Z,4.65
2024-03-08T08:26:18.546Z,4.38
2024-03-08T08:27:15.627Z,4.13
2024-03-08T08:28:14.005Z,3.78
2024-03-08T08:29:10.708Z,3.25
2024-03-08T08:30:09.652Z,3.27
2024-03-08T08:31:07.174Z,3.68
2024-03-08T08:32:05.042Z,4.11
2024-03-08T08:33:03.448Z,4.40
2024-03-08T08:34:00.932Z,4.09
2024-03-08T08:34:58.520Z,3.65
2024-03-08T08:35:55.773Z,4.23
2024-03-08T08:36:52.548Z,4.29
2024-03-08T08:37:49.235Z,3.92
2024-03-08T08:38:47.849Z,4.28
2024-03-08T08:39:44.621Z,4.31
2024-03-08T08:40:42.629Z,4.31
2024-03-08T08:41:39.338Z,4.67
2024-03-08T08:42:36.054Z,4.72
2024-03-08T08:43:34.876Z,4.68
2024-03-08T08:44:32.645Z,4.40
2024-03-08T08:45:29.466Z,4.50
2024-03-08T08:46:27.349Z,4.46
2024-03-08T08:47:24.744Z,4.79
2024-03-08T08:48:21.420Z,4.88
2024-03-08T08:49:21.751Z,4.96
2024-03-08T08:50:24.271Z,5.05
2024-03-08T08:51:21.761Z,5.09
2024-03-08T08:52:18.462Z,4.78
2024-03-08T08:53:15.887Z,4.94
2024-03-08T08:54:14.523Z,4.68
2024-03-08T08:55:16.223Z,5.08
2024-03-08T08:56:17.113Z,5.07
2024-03-08T08:57:15.009Z,4.15
2024-03-08T08:58:12.394Z,4.20
2024-03-08T08:59:09.028Z,4.73
2024-03-08T09:00:09.003Z,4.94
2024-03-08T09:01:06.484Z,4.99
2024-03-08T09:02:05.114Z,5.42
2024-03-08T09:03:03.543Z,5.20
2024-03-08T09:04:00.188Z,5.26
2024-03-08T09:04:56.946Z,5.31
2024-03-08T09:05:53.814Z,5.49
2024-03-08T09:06:50.622Z,5.37
2024-03-08T09:07:47.384Z,5.33
2024-03-08T09:08:45.215Z,5.33
2024-03-08T09:09:43.676Z,5.33
2024-03-08T09:10:40.481Z,5.26
2024-03-08T09:11:37.307Z,5.00
2024-03-08T09:12:34.044Z,5.32
2024-03-08T09:13:32.689Z,5.56
2024-03-08T09:14:31.037Z,5.42
2024-03-08T09:15:30.065Z,5.32
2024-03-08T09:16:27.727Z,5.61
2024-03-08T09:17:24.454Z,5.28
2024-03-08T09:18:21.130Z,5.24
2024-03-08T09:19:18.482Z,4.90
2024-03-08T09:20:16.421Z,5.33
2024-03-08T09:21:14.407Z,5.78
2024-03-08T09:22:12.358Z,5.88
2024-03-08T09:23:09.550Z,5.48
2024-03-08T09:24:07.097Z,5.79
2024-03-08T09:25:06.544Z,5.73
2024-03-08T09:26:08.170Z,5.51
2024-03-08T09:27:07.484Z,4.55
2024-03-08T09:28:04.408Z,5.10
2024-03-08T09:29:01.082Z,5.20
2024-03-08T09:29:57.740Z,5.45
2024-03-08T09:30:59.711Z,5.64
2024-03-08T09:31:57.292Z,5.84
2024-03-08T09:32:55.056Z,4.90
2024-03-08T09:33:52.974Z,4.41
2024-03-08T09:34:49.910Z,4.66
2024-03-08T09:35:50.333Z,5.72
2024-03-08T09:36:47.068Z,6.52
2024-03-08T09:37:43.750Z,6.45
2024-03-08T09:38:41.842Z,6.25
2024-03-08T09:39:39.748Z,5.57
2024-03-08T09:40:36.376Z,5.07
2024-03-08T09:41:33.051Z,4.73
2024-03-08T09:42:29.647Z,4.67
2024-03-08T09:43:26.421Z,5.64
2024-03-08T09:44:25.815Z,6.23
2024-03-08T09:45:26.300Z,6.52
2024-03-08T09:46:24.305Z,6.27
2024-03-08T09:47:24.524Z,6.75
2024-03-08T09:48:21.667Z,6.35
2024-03-08T09:49:18.421Z,6.78
2024-03-08T09:50:15.146Z,7.02
2024-03-08T09:51:16.329Z,5.55
2024-03-08T09:52:13.769Z,6.57
2024-03-08T09:53:12.929Z,5.28
2024-03-08T09:54:14.795Z,6.20
2024-03-08T09:55:19.019Z,5.47
2024-03-08T09:56:16.069Z,6.67
2024-03-08T09:57:13.450Z,7.30
2024-03-08T09:58:31.026Z,6.67
2024-03-08T09:59:27.794Z,6.88
2024-03-08T10:00:25.791Z,7.00
2024-03-08T10:01:22.885Z,6.83
2024-03-08T10:02:19.917Z,6.63
2024-03-08T10:03:16.908Z,5.75
2024-03-08T10:04:14.940Z,6.99
2024-03-08T10:05:13.885Z,7.28
2024-03-08T10:06:11.314Z,6.90
2024-03-08T10:07:08.608Z,7.44
2024-03-08T10:08:07.918Z,7.01
2024-03-08T10:09:07.277Z,6.87
2024-03-08T10:10:04.111Z,6.01
2024-03-08T10:11:01.044Z,6.23
2024-03-08T10:12:01.576Z,5.86
2024-03-08T10:12:59.000Z,5.77
2024-03-08T10:13:55.791Z,6.22
2024-03-08T10:14:56.931Z,6.63
2024-03-08T10:15:54.256Z,5.70
2024-03-08T10:16:50.938Z,5.51
2024-03-08T10:17:47.713Z,5.48
2024-03-08T10:18:46.760Z,6.23
2024-03-08T10:19:51.990Z,6.25
2024-03-08T10:21:05.208Z,6.83
2024-03-08T10:22:01.929Z,6.94
2024-03-08T10:23:07.335Z,6.08
2024-03-08T10:24:11.780Z,6.08
2024-03-08T10:25:09.107Z,7.04
2024-03-08T10:26:16.553Z,7.71
2024-03-08T10:27:13.480Z,7.93
2024-03-08T10:28:10.157Z,7.87
2024-03-08T10:29:06.798Z,7.82
2024-03-08T10:30:05.490Z,7.95
2024-03-08T10:31:02.265Z,8.15
2024-03-08T10:31:59.039Z,8.42
2024-03-08T10:32:55.725Z,8.19
2024-03-08T10:33:52.408Z,6.04
2024-03-08T10:34:51.534Z,5.40
2024-03-08T10:35:48.324Z,5.97
2024-03-08T10:36:46.041Z,5.21
2024-03-08T10:37:49.264Z,5.87
2024-03-08T10:38:49.771Z,6.31
2024-03-08T10:40:17.169Z,5.88
2024-03-08T10:41:14.486Z,6.62
2024-03-08T10:42:19.471Z,6.31
2024-03-08T10:43:28.121Z,6.31
2024-03-08T10:44:41.695Z,5.50
2024-03-08T10:45:44.633Z,5.55
2024-03-08T10:46:47.719Z,5.79
2024-03-08T10:47:50.627Z,6.65
2024-03-08T10:48:51.075Z,6.25
2024-03-08T10:50:14.367Z,6.29
2024-03-08T10:51:13.068Z,6.77
2024-03-08T10:52:11.794Z,7.15
2024-03-08T10:53:12.321Z,6.55
2024-03-08T10:54:11.767Z,5.78
2024-03-08T10:55:13.938Z,6.21
2024-03-08T10:56:11.094Z,6.45
2024-03-08T10:57:10.034Z,6.04
2024-03-08T10:58:07.556Z,5.19
2024-03-08T10:59:05.947Z,6.03
2024-03-08T11:00:09.113Z,6.21
2024-03-08T11:01:07.565Z,6.27
2024-03-08T11:02:06.264Z,5.58
2024-03-08T11:03:04.478Z,6.02
2024-03-08T11:04:05.962Z,5.58
2024-03-08T11:05:05.076Z,5.64
2024-03-08T11:06:02.507Z,5.30
2024-03-08T11:07:07.597Z,5.22
2024-03-08T11:08:05.572Z,5.40
2024-03-08T11:09:02.344Z,5.67
2024-03-08T11:09:59.014Z,5.81
2024-03-08T11:10:58.901Z,6.13
2024-03-08T11:12:22.732Z,6.41
2024-03-08T11:13:39.102Z,5.96
2024-03-08T11:14:45.065Z,5.88
2024-03-08T11:15:43.444Z,6.10
2024-03-08T11:16:41.935Z,6.34
2024-03-08T11:17:41.254Z,5.86
2024-03-08T11:18:39.026Z,6.15
2024-03-08T11:19:35.822Z,5.94
2024-03-08T11:20:36.828Z,5.93
2024-03-08T11:21:40.774Z,5.59
2024-03-08T11:22:42.916Z,5.29
2024-03-08T11:23:43.339Z,5.67
2024-03-08T11:24:43.194Z,5.92
2024-03-08T11:25:44.638Z,6.37
2024-03-08T11:26:42.116Z,6.93
2024-03-08T11:27:39.297Z,6.07
2024-03-08T11:28:36.007Z,6.03
2024-03-08T11:29:33.660Z,5.51
2024-03-08T11:30:30.276Z,6.02
2024-03-08T11:31:28.166Z,6.21
2024-03-08T11:32:29.387Z,7.01
2024-03-08T11:33:29.587Z,6.69
2024-03-08T11:34:27.596Z,7.17
2024-03-08T11:35:24.810Z,7.03
2024-03-08T11:36:26.039Z,6.90
2024-03-08T11:37:23.417Z,6.90
2024-03-08T11:38:20.400Z,6.89
2024-03-08T11:39:18.603Z,7.24
2024-03-08T11:40:20.737Z,7.61
2024-03-08T11:41:22.274Z,7.26
2024-03-08T11:42:20.738Z,7.73
2024-03-08T11:43:17.656Z,7.53
2024-03-08T11:44:17.357Z,7.44
2024-03-08T11:45:14.858Z,7.41
2024-03-08T11:46:13.744Z,7.17
2024-03-08T11:47:13.564Z,6.27
2024-03-08T11:48:10.433Z,5.19
2024-03-08T11:49:07.268Z,5.56
2024-03-08T11:50:04.721Z,5.59
2024-03-08T11:51:02.968Z,5.23
2024-03-08T11:51:59.762Z,5.80
2024-03-08T11:53:03.971Z,6.51
2024-03-08T11:54:00.808Z,6.14
2024-03-08T11:55:00.570Z,5.67
2024-03-08T11:56:07.578Z,6.21
2024-03-08T11:57:05.098Z,7.12
2024-03-08T11:58:05.752Z,6.99
2024-03-08T11:59:03.211Z,6.73
2024-03-08T12:00:24.002Z,7.39
2024-03-08T12:01:20.700Z,7.81
2024-03-08T12:02:17.396Z,7.65
2024-03-08T12:03:14.215Z,7.72
2024-03-08T12:04:13.882Z,8.03
2024-03-08T12:05:17.721Z,7.88
2024-03-08T12:06:17.219Z,8.05
2024-03-08T12:07:15.355Z,7.04
2024-03-08T12:08:14.305Z,7.71
2024-03-08T12:09:12.181Z,8.09
2024-03-08T12:10:23.346Z,7.90
2024-03-08T12:11:24.428Z,7.23
2024-03-08T12:12:22.667Z,6.74
2024-03-08T12:13:19.389Z,6.71
2024-03-08T12:14:16.487Z,7.02
2024-03-08T12:15:13.662Z,7.19
2024-03-08T12:16:10.693Z,6.64
2024-03-08T12:17:07.574Z,6.55
2024-03-08T12:18:06.202Z,6.54
2024-03-08T12:19:05.582Z,6.16
2024-03-08T12:20:23.170Z,5.92
2024-03-08T12:21:22.825Z,5.97
2024-03-08T12:22:19.699Z,5.78
2024-03-08T12:23:18.010Z,5.47
2024-03-08T12:24:17.832Z,5.58
2024-03-08T12:25:15.264Z,6.10
2024-03-08T12:26:17.026Z,5.95
2024-03-08T12:27:21.421Z,6.15
2024-03-08T12:28:20.786Z,6.70
2024-03-08T12:29:23.916Z,6.76
2024-03-08T12:30:23.276Z,6.69
2024-03-08T12:31:23.239Z,6.29
2024-03-08T12:32:20.099Z,5.79
2024-03-08T12:33:17.950Z,5.73
2024-03-08T12:34:15.751Z,6.60
2024-03-08T12:35:12.619Z,6.53
2024-03-08T12:36:16.204Z,7.04
2024-03-08T12:37:14.024Z,7.41
2024-03-08T12:38:10.775Z,7.30
2024-03-08T12:39:13.545Z,6.95
2024-03-08T12:40:11.526Z,6.64
2024-03-08T12:41:09.780Z,6.44
2024-03-08T12:42:07.423Z,6.11
2024-03-08T12:43:04.585Z,5.91
2024-03-08T12:44:01.250Z,6.29
2024-03-08T12:44:57.921Z,5.84
2024-03-08T12:45:55.921Z,5.90
2024-03-08T12:46:54.881Z,6.14
2024-03-08T12:47:52.798Z,5.73
2024-03-08T12:48:49.729Z,6.57
2024-03-08T12:49:46.805Z,6.89
2024-03-08T12:50:48.948Z,6.44
2024-03-08T12:51:46.337Z,6.51
2024-03-08T12:52:43.068Z,6.43
2024-03-08T12:53:41.750Z,5.88
2024-03-08T12:54:38.398Z,6.18